createdAt,value
2023-04-16T00:03:05.408Z,23.10
2023-04-16T00:06:06.130Z,22.64
2023-04-16T00:09:07.503Z,22.84
2023-04-16T00:12:08.143Z,22.75
2023-04-16T00:15:09.216Z,22.59
2023-04-16T00:18:10.163Z,22.81
2023-04-16T00:21:11.185Z,22.57
2023-04-16T00:24:12.204Z,22.71
2023-04-16T00:27:13.349Z,22.55
2023-04-16T00:30:14.133Z,23.07
2023-04-16T00:33:15.164Z,22.52
2023-04-16T00:36:16.119Z,23.10
2023-04-16T00:39:17.158Z,22.70
2023-04-16T00:42:20.230Z,22.74
2023-04-16T00:45:21.203Z,22.65
2023-04-16T00:48:22.141Z,22.89
2023-04-16T00:51:24.184Z,22.98
2023-04-16T00:54:25.208Z,22.61
2023-04-16T00:57:28.188Z,23.05
2023-04-16T01:00:29.142Z,22.78
2023-04-16T01:03:30.429Z,22.83
2023-04-16T01:06:31.183Z,23.03
2023-04-16T01:09:32.198Z,22.81
2023-04-16T01:12:33.139Z,23.24
2023-04-16T01:15:34.198Z,23.19
2023-04-16T01:18:35.139Z,22.81
2023-04-16T01:21:36.183Z,22.62
2023-04-16T01:24:37.108Z,22.87
2023-04-16T01:27:38.313Z,22.72
2023-04-16T01:30:39.136Z,22.93
2023-04-16T01:34:09.158Z,22.53
2023-04-16T01:37:10.131Z,22.74
2023-04-16T01:40:11.166Z,22.42
2023-04-16T01:43:12.134Z,22.88
2023-04-16T01:46:25.180Z,22.85
2023-04-16T01:49:26.131Z,23.42
2023-04-16T01:52:27.143Z,23.79
2023-04-16T01:55:28.151Z,23.08
2023-04-16T01:58:29.143Z,23.04
2023-04-16T02:01:30.193Z,24.15
2023-04-16T02:04:31.154Z,23.70
2023-04-16T02:07:32.115Z,23.10
2023-04-16T02:10:33.166Z,23.14
2023-04-16T02:13:35.114Z,23.08
2023-04-16T02:16:36.195Z,23.05
2023-04-16T02:19:44.104Z,23.58
2023-04-16T02:22:46.180Z,23.09
2023-04-16T02:25:46.298Z,22.94
2023-04-16T02:28:40.311Z,22.95
2023-04-16T02:31:41.165Z,23.04
2023-04-16T02:34:42.189Z,22.96
2023-04-16T02:37:43.131Z,22.73
2023-04-16T02:40:44.136Z,23.46
2023-04-16T02:43:45.129Z,23.14
2023-04-16T02:46:46.169Z,22.58
2023-04-16T02:49:47.130Z,22.69
2023-04-16T02:52:48.157Z,23.69
2023-04-16T02:55:49.129Z,23.50
2023-04-16T02:58:50.164Z,22.64
2023-04-16T03:01:51.230Z,23.96
2023-04-16T03:04:52.160Z,23.35
2023-04-16T03:07:53.134Z,23.06
2023-04-16T03:10:54.174Z,23.38
2023-04-16T03:13:55.110Z,23.04
2023-04-16T03:16:56.155Z,23.23
2023-04-16T03:19:57.111Z,23.38
2023-04-16T03:22:59.137Z,22.85
2023-04-16T03:26:00.127Z,23.46
2023-04-16T03:29:01.304Z,23.16
2023-04-16T03:32:02.118Z,22.73
2023-04-16T03:35:04.150Z,22.88
2023-04-16T03:38:05.101Z,22.89
2023-04-16T03:41:06.157Z,23.12
2023-04-16T03:44:07.093Z,23.15
2023-04-16T03:47:08.173Z,23.08
2023-04-16T03:50:09.141Z,22.71
2023-04-16T03:53:10.185Z,23.20
2023-04-16T03:56:11.134Z,23.29
2023-04-16T03:59:12.166Z,23.25
2023-04-16T04:02:13.292Z,22.52
2023-04-16T04:05:14.164Z,23.05
2023-04-16T04:08:15.119Z,22.87
2023-04-16T04:11:16.157Z,23.25
2023-04-16T04:14:17.125Z,24.03
2023-04-16T04:17:18.171Z,23.35
2023-04-16T04:20:19.099Z,23.15
2023-04-16T04:23:21.151Z,23.14
2023-04-16T04:26:22.209Z,22.89
2023-04-16T04:29:25.434Z,23.26
2023-04-16T04:32:26.163Z,22.19
2023-04-16T04:35:27.121Z,21.86
2023-04-16T04:38:29.114Z,22.92
2023-04-16T04:41:31.134Z,22.78
2023-04-16T04:44:32.135Z,22.50
2023-04-16T04:47:33.170Z,23.01
2023-04-16T04:50:34.098Z,22.68
2023-04-16T04:53:35.222Z,22.27
2023-04-16T04:56:37.064Z,22.38
2023-04-16T04:59:38.143Z,22.56
2023-04-16T05:02:40.338Z,22.69
2023-04-16T05:05:41.176Z,22.09
2023-04-16T05:08:42.093Z,21.79
2023-04-16T05:11:43.220Z,22.90
2023-04-16T05:14:44.122Z,21.97
2023-04-16T05:17:45.168Z,21.95
2023-04-16T05:20:46.104Z,21.99
2023-04-16T05:23:48.141Z,22.20
2023-04-16T05:26:49.095Z,22.41
2023-04-16T05:29:50.332Z,21.51
2023-04-16T05:32:53.205Z,22.05
2023-04-16T05:35:54.122Z,21.39
2023-04-16T05:38:55.097Z,22.26
2023-04-16T05:41:56.118Z,22.26
2023-04-16T05:44:57.117Z,21.76
2023-04-16T05:47:58.171Z,21.48
2023-04-16T05:50:59.089Z,21.95
2023-04-16T05:54:01.135Z,22.11
2023-04-16T05:57:02.393Z,22.13
2023-04-16T06:00:03.131Z,22.13
2023-04-16T06:03:06.272Z,22.05
2023-04-16T06:06:07.133Z,22.43
2023-04-16T06:09:08.381Z,21.92
2023-04-16T06:12:09.131Z,22.14
2023-04-16T06:15:10.133Z,22.32
2023-04-16T06:18:11.185Z,22.35
2023-04-16T06:21:12.076Z,21.77
2023-04-16T06:24:13.121Z,22.11
2023-04-16T06:27:14.072Z,22.14
2023-04-16T06:30:15.186Z,22.25
2023-04-16T06:33:16.079Z,22.32
2023-04-16T06:36:18.141Z,22.04
2023-04-16T06:39:19.077Z,22.02
2023-04-16T06:42:20.134Z,22.10
2023-04-16T06:45:21.078Z,21.90
2023-04-16T06:48:22.112Z,22.18
2023-04-16T06:51:23.093Z,22.55
2023-04-16T06:54:24.104Z,22.53
2023-04-16T06:57:27.081Z,21.92
2023-04-16T07:00:28.123Z,21.29
2023-04-16T07:03:29.274Z,22.30
2023-04-16T07:06:30.092Z,22.08
2023-04-16T07:09:31.092Z,21.71
2023-04-16T07:12:34.129Z,23.13
2023-04-16T07:15:35.096Z,22.09
2023-04-16T07:18:36.121Z,22.27
2023-04-16T07:21:37.075Z,21.69
2023-04-16T07:24:38.084Z,22.09
2023-04-16T07:27:39.083Z,22.20
2023-04-16T07:30:41.201Z,20.96
2023-04-16T07:33:42.100Z,21.54
2023-04-16T07:36:43.149Z,21.31
2023-04-16T07:39:44.084Z,22.13
2023-04-16T07:42:45.110Z,21.87
2023-04-16T07:45:46.078Z,21.87
2023-04-16T07:48:47.124Z,22.05
2023-04-16T07:51:48.105Z,21.66
2023-04-16T07:54:49.136Z,21.97
2023-04-16T07:57:50.107Z,21.76
2023-04-16T08:00:51.204Z,21.07
2023-04-16T08:03:52.308Z,21.50
2023-04-16T08:06:53.112Z,21.85
2023-04-16T08:10:05.075Z,21.73
2023-04-16T08:13:06.109Z,21.23
2023-04-16T08:16:07.121Z,21.67
2023-04-16T08:19:08.225Z,21.64
2023-04-16T08:22:09.085Z,22.16
2023-04-16T08:25:12.101Z,22.18
2023-04-16T08:28:13.067Z,21.89
2023-04-16T08:31:14.235Z,21.29
2023-04-16T08:34:15.070Z,21.62
2023-04-16T08:37:16.323Z,22.21
2023-04-16T08:40:17.063Z,21.77
2023-04-16T08:43:19.090Z,22.14
2023-04-16T08:46:20.119Z,22.32
2023-04-16T08:49:21.121Z,22.32
2023-04-16T08:52:23.067Z,21.91
2023-04-16T08:55:27.098Z,22.10
2023-04-16T08:58:28.077Z,22.16
2023-04-16T09:01:38.125Z,22.62
2023-04-16T09:04:42.133Z,22.66
2023-04-16T09:07:43.104Z,22.25
2023-04-16T09:10:44.049Z,21.58
2023-04-16T09:13:45.118Z,21.64
2023-04-16T09:16:47.329Z,21.75
2023-04-16T09:19:48.116Z,20.95
2023-04-16T09:22:49.070Z,21.80
2023-04-16T09:25:52.146Z,21.75
2023-04-16T09:28:51.465Z,22.27
2023-04-16T09:31:45.130Z,21.30
2023-04-16T09:34:46.066Z,21.16
2023-04-16T09:37:47.400Z,20.93
2023-04-16T09:40:48.045Z,20.45
2023-04-16T09:43:49.140Z,20.38
2023-04-16T09:46:51.045Z,19.84
2023-04-16T09:49:55.102Z,20.38
2023-04-16T09:52:58.061Z,20.64
2023-04-16T09:55:59.087Z,19.84
2023-04-16T09:59:00.104Z,19.54
2023-04-16T10:02:14.864Z,19.80
2023-04-16T10:05:18.056Z,19.57
2023-04-16T10:08:26.130Z,19.37
2023-04-16T10:11:27.091Z,19.36
2023-04-16T10:14:28.131Z,19.51
2023-04-16T10:17:29.073Z,19.46
2023-04-16T10:20:33.104Z,19.79
2023-04-16T10:23:35.098Z,20.07
2023-04-16T10:26:38.106Z,20.65
2023-04-16T10:29:36.159Z,20.64
2023-04-16T10:32:35.133Z,21.10
2023-04-16T10:35:36.039Z,21.19
2023-04-16T10:38:42.252Z,21.25
2023-04-16T10:41:45.031Z,21.12
2023-04-16T10:44:46.081Z,21.97
2023-04-16T10:47:53.094Z,22.04
2023-04-16T10:50:54.093Z,20.98
2023-04-16T10:53:55.076Z,20.93
2023-04-16T10:56:58.210Z,21.94
2023-04-16T10:59:59.043Z,21.90
2023-04-16T11:03:00.180Z,21.81
2023-04-16T11:06:02.084Z,21.67
2023-04-16T11:09:04.215Z,22.35
2023-04-16T11:12:06.041Z,22.01
2023-04-16T11:15:08.133Z,22.09
2023-04-16T11:18:10.074Z,22.07
2023-04-16T11:21:11.092Z,22.00
2023-04-16T11:24:12.056Z,22.18
2023-04-16T11:27:13.077Z,22.31
2023-04-16T11:30:16.146Z,22.12
2023-04-16T11:33:10.146Z,22.08
2023-04-16T11:36:11.049Z,21.71
2023-04-16T11:39:15.310Z,22.28
2023-04-16T11:42:16.070Z,22.02
2023-04-16T11:45:17.066Z,22.43
2023-04-16T11:48:18.096Z,21.51
2023-04-16T11:51:19.173Z,21.46
2023-04-16T11:54:20.217Z,22.23
2023-04-16T11:57:21.108Z,22.42
2023-04-16T12:00:24.537Z,21.84
2023-04-16T12:03:26.228Z,22.87
2023-04-16T12:06:27.062Z,21.89
2023-04-16T12:09:41.245Z,22.05
2023-04-16T12:12:43.079Z,22.06
2023-04-16T12:15:57.118Z,22.80
2023-04-16T12:19:12.219Z,23.06
2023-04-16T12:22:14.070Z,22.36
2023-04-16T12:25:18.054Z,22.66
2023-04-16T12:28:19.139Z,22.47
2023-04-16T12:31:13.231Z,22.65
2023-04-16T12:34:10.083Z,22.28
2023-04-16T12:37:20.010Z,23.17
2023-04-16T12:40:21.304Z,22.83
2023-04-16T12:43:23.033Z,22.93
2023-04-16T12:46:24.164Z,22.93
2023-04-16T12:49:25.032Z,23.29
2023-04-16T12:52:26.069Z,23.64
2023-04-16T12:55:27.068Z,23.14
2023-04-16T12:58:28.072Z,23.63
2023-04-16T13:01:29.128Z,23.69
2023-04-16T13:04:32.076Z,22.58
2023-04-16T13:07:40.056Z,22.75
2023-04-16T13:10:41.071Z,23.62
2023-04-16T13:13:42.281Z,22.64
2023-04-16T13:16:45.123Z,23.15
2023-04-16T13:19:46.165Z,23.06
2023-04-16T13:22:47.091Z,23.53
2023-04-16T13:25:50.179Z,22.63
2023-04-16T13:28:51.161Z,24.22
2023-04-16T13:31:52.088Z,23.62
2023-04-16T13:34:53.069Z,23.51
2023-04-16T13:37:54.031Z,23.28
2023-04-16T13:40:55.431Z,23.69
2023-04-16T13:43:56.020Z,23.77
2023-04-16T13:46:57.109Z,23.20
2023-04-16T13:49:58.130Z,23.94
2023-04-16T13:52:59.262Z,23.59
2023-04-16T13:56:00.117Z,22.75
2023-04-16T13:59:01.066Z,23.36
2023-04-16T14:02:02.062Z,23.44
2023-04-16T14:05:03.080Z,22.86
2023-04-16T14:08:04.020Z,22.75
2023-04-16T14:11:05.090Z,23.11
2023-04-16T14:14:08.017Z,22.72
2023-04-16T14:17:10.075Z,22.37
2023-04-16T14:20:12.026Z,23.26
2023-04-16T14:23:13.092Z,23.18
2023-04-16T14:26:14.021Z,23.97
2023-04-16T14:29:15.082Z,23.60
2023-04-16T14:32:16.011Z,22.95
2023-04-16T14:35:17.205Z,24.06
2023-04-16T14:38:18.050Z,23.64
2023-04-16T14:41:19.327Z,23.18
2023-04-16T14:44:20.051Z,23.24
2023-04-16T14:47:21.049Z,23.37
2023-04-16T14:50:22.036Z,23.60
2023-04-16T14:53:23.072Z,23.27
2023-04-16T14:56:24.034Z,22.73
2023-04-16T14:59:25.058Z,23.01
2023-04-16T15:02:26.216Z,23.66
2023-04-16T15:05:27.119Z,23.37
2023-04-16T15:08:28.009Z,24.00
2023-04-16T15:11:29.057Z,23.80
2023-04-16T15:14:30.025Z,23.80
2023-04-16T15:17:32.164Z,23.62
2023-04-16T15:20:33.052Z,23.53
2023-04-16T15:23:34.078Z,23.62
2023-04-16T15:26:36.056Z,23.12
2023-04-16T15:29:37.274Z,23.66
2023-04-16T15:32:38.047Z,23.46
2023-04-16T15:35:39.076Z,23.62
2023-04-16T15:38:40.066Z,22.94
2023-04-16T15:41:59.902Z,22.95
2023-04-16T15:45:02.020Z,22.93
2023-04-16T15:48:03.174Z,22.63
2023-04-16T15:51:04.052Z,22.98
2023-04-16T15:54:05.069Z,23.50
2023-04-16T15:57:06.060Z,23.60
2023-04-16T16:00:07.629Z,23.25
2023-04-16T16:03:09.386Z,23.43
2023-04-16T16:06:11.048Z,22.73
2023-04-16T16:09:12.156Z,22.59
2023-04-16T16:12:13.064Z,22.76
2023-04-16T16:15:14.040Z,22.82
2023-04-16T16:18:15.207Z,22.73
2023-04-16T16:21:16.167Z,22.87
2023-04-16T16:24:17.092Z,22.39
2023-04-16T16:27:18.029Z,23.02
2023-04-16T16:30:19.128Z,22.74
2023-04-16T16:33:13.655Z,22.51
2023-04-16T16:36:07.043Z,22.46
2023-04-16T16:39:08.178Z,22.76
2023-04-16T16:42:09.249Z,22.49
2023-04-16T16:45:12.071Z,22.44
2023-04-16T16:48:13.138Z,22.47
2023-04-16T16:51:33.993Z,22.65
2023-04-16T16:54:21.106Z,22.86
2023-04-16T16:57:22.034Z,22.58
2023-04-16T17:00:23.054Z,22.27
2023-04-16T17:03:24.143Z,22.75
2023-04-16T17:06:25.111Z,22.73
2023-04-16T17:09:25.997Z,22.93
2023-04-16T17:12:27.028Z,22.82
2023-04-16T17:15:28.076Z,22.87
2023-04-16T17:18:29.203Z,22.33
2023-04-16T17:21:29.989Z,22.73
2023-04-16T17:24:31.081Z,22.43
2023-04-16T17:27:32.081Z,22.72
2023-04-16T17:30:59.077Z,22.84
2023-04-16T17:33:53.204Z,22.58
2023-04-16T17:36:47.067Z,22.41
2023-04-16T17:39:48.200Z,22.68
2023-04-16T17:42:49.431Z,22.79
2023-04-16T17:45:50.101Z,22.71
2023-04-16T17:48:51.055Z,22.69
2023-04-16T17:51:51.960Z,22.89
2023-04-16T17:54:53.052Z,23.03
2023-04-16T17:57:53.962Z,23.12
2023-04-16T18:00:55.059Z,22.46
2023-04-16T18:03:56.211Z,22.14
2023-04-16T18:06:57.045Z,22.58
2023-04-16T18:09:57.995Z,22.59
2023-04-16T18:12:59.069Z,22.63
2023-04-16T18:16:00.089Z,22.46
2023-04-16T18:19:01.057Z,22.74
2023-04-16T18:22:02.039Z,22.60
2023-04-16T18:25:03.490Z,22.71
2023-04-16T18:28:04.983Z,22.78
2023-04-16T18:31:11.140Z,22.70
2023-04-16T18:34:12.556Z,22.71
2023-04-16T18:37:13.212Z,22.84
2023-04-16T18:40:16.977Z,22.55
2023-04-16T18:43:18.308Z,22.76
2023-04-16T18:46:19.074Z,22.50
2023-04-16T18:49:20.005Z,22.59
2023-04-16T18:52:21.065Z,22.62
2023-04-16T18:55:22.066Z,22.62
2023-04-16T18:58:22.982Z,22.39
2023-04-16T19:01:24.050Z,22.50
2023-04-16T19:04:25.049Z,22.20
2023-04-16T19:07:26.069Z,22.65
2023-04-16T19:10:27.058Z,22.27
2023-04-16T19:13:28.062Z,22.28
2023-04-16T19:16:29.015Z,22.87
2023-04-16T19:19:30.056Z,23.25
2023-04-16T19:22:30.970Z,22.63
2023-04-16T19:25:34.021Z,22.17
2023-04-16T19:28:34.972Z,22.41
2023-04-16T19:32:04.144Z,22.15
2023-04-16T19:34:59.153Z,22.29
2023-04-16T19:37:53.012Z,22.83
2023-04-16T19:40:54.016Z,22.25
2023-04-16T19:43:55.173Z,22.93
2023-04-16T19:46:56.035Z,22.38
2023-04-16T19:49:59.134Z,22.77
2023-04-16T19:53:00.002Z,22.52
2023-04-16T19:56:01.056Z,22.60
2023-04-16T19:59:01.999Z,22.56
2023-04-16T20:02:03.126Z,22.84
2023-04-16T20:05:03.972Z,22.82
2023-04-16T20:08:05.028Z,22.47
2023-04-16T20:11:07.009Z,22.81
2023-04-16T20:14:08.004Z,22.72
2023-04-16T20:17:12.570Z,22.67
2023-04-16T20:20:17.019Z,22.73
2023-04-16T20:23:17.958Z,22.48
2023-04-16T20:26:19.207Z,22.25
2023-04-16T20:29:20.014Z,22.34
2023-04-16T20:32:46.112Z,22.72
2023-04-16T20:35:40.179Z,22.73
2023-04-16T20:38:36.049Z,22.60
2023-04-16T20:41:36.986Z,22.46
2023-04-16T20:44:47.231Z,22.29
2023-04-16T20:47:50.019Z,22.72
2023-04-16T20:50:52.100Z,22.48
2023-04-16T20:53:52.953Z,22.43
2023-04-16T20:56:54.026Z,22.61
2023-04-16T20:59:54.947Z,23.12
2023-04-16T21:02:56.196Z,22.80
2023-04-16T21:06:01.027Z,22.77
2023-04-16T21:09:02.027Z,22.79
2023-04-16T21:12:02.964Z,22.50
2023-04-16T21:15:04.036Z,22.56
2023-04-16T21:18:05.039Z,22.78
2023-04-16T21:21:06.094Z,22.64
2023-04-16T21:24:06.962Z,22.61
2023-04-16T21:27:08.020Z,23.03
2023-04-16T21:30:08.969Z,22.20
2023-04-16T21:33:10.048Z,22.29
2023-04-16T21:36:10.986Z,22.69
2023-04-16T21:39:12.277Z,22.90
2023-04-16T21:42:12.975Z,22.89
2023-04-16T21:45:14.245Z,23.03
2023-04-16T21:48:15.076Z,22.88
2023-04-16T21:51:16.997Z,22.91
2023-04-16T21:54:18.027Z,22.66
2023-04-16T21:57:19.062Z,22.53
2023-04-16T22:00:20.988Z,23.05
2023-04-16T22:03:24.120Z,22.74
2023-04-16T22:06:24.958Z,22.45
2023-04-16T22:09:26.002Z,22.43
2023-04-16T22:12:26.984Z,22.67
2023-04-16T22:15:28.017Z,22.67
2023-04-16T22:18:28.978Z,22.93
2023-04-16T22:21:30.011Z,22.67
2023-04-16T22:24:31.152Z,23.11
2023-04-16T22:27:31.994Z,22.46
2023-04-16T22:30:32.969Z,23.02
2023-04-16T22:33:33.993Z,22.99
2023-04-16T22:36:34.963Z,22.82
2023-04-16T22:39:36.237Z,22.68
2023-04-16T22:42:37.019Z,22.94
2023-04-16T22:45:38.204Z,23.06
2023-04-16T22:48:38.955Z,22.98
2023-04-16T22:51:40.201Z,23.02
2023-04-16T22:54:43.954Z,22.81
2023-04-16T22:57:44.984Z,22.40
2023-04-16T23:00:45.961Z,22.47
2023-04-16T23:03:47.084Z,22.34
2023-04-16T23:06:48.978Z,22.55
2023-04-16T23:09:49.992Z,22.52
2023-04-16T23:12:56.974Z,22.80
2023-04-16T23:15:58.194Z,22.75
2023-04-16T23:18:58.960Z,22.93
2023-04-16T23:21:59.969Z,22.96
2023-04-16T23:25:00.960Z,22.79
2023-04-16T23:28:02.080Z,23.21
2023-04-16T23:31:07.427Z,22.60
2023-04-16T23:34:08.003Z,22.58
2023-04-16T23:37:08.971Z,22.56
2023-04-16T23:40:11.019Z,22.89
2023-04-16T23:43:11.938Z,23.07
2023-04-16T23:46:13.289Z,22.72
2023-04-16T23:49:14.074Z,22.77
2023-04-16T23:52:14.991Z,22.77
2023-04-16T23:55:15.923Z,22.36
2023-04-16T23:58:17.053Z,23.19
